createdAt,value
2022-11-15T00:04:47.303Z,10.60
2022-11-15T00:09:49.488Z,10.60
2022-11-15T00:14:55.647Z,10.50
2022-11-15T00:19:59.405Z,10.40
2022-11-15T00:25:01.627Z,10.30
2022-11-15T00:30:04.617Z,10.20
2022-11-15T00:35:09.123Z,10.10
2022-11-15T00:40:15.173Z,10.10
2022-11-15T00:45:17.623Z,10.00
2022-11-15T00:50:21.363Z,9.90
2022-11-15T00:55:23.603Z,9.80
2022-11-15T01:00:25.925Z,9.60
2022-11-15T01:05:32.536Z,9.50
2022-11-15T01:10:34.813Z,9.40
2022-11-15T01:15:41.200Z,9.30
2022-11-15T01:20:44.824Z,9.20
2022-11-15T01:25:47.029Z,9.10
2022-11-15T01:30:49.317Z,9.10
2022-11-15T01:35:52.988Z,9.00
2022-11-15T01:40:55.145Z,8.90
2022-11-15T01:46:00.701Z,8.80
2022-11-15T01:51:07.994Z,8.80
2022-11-15T01:56:11.915Z,8.70
2022-11-15T02:01:15.007Z,8.60
2022-11-15T02:06:19.342Z,8.50
2022-11-15T02:11:21.585Z,8.40
2022-11-15T02:16:35.413Z,8.40
2022-11-15T02:21:46.339Z,8.40
2022-11-15T02:27:18.602Z,8.30
2022-11-15T02:32:29.925Z,8.20
2022-11-15T02:37:40.685Z,8.20
2022-11-15T02:42:48.114Z,8.10
2022-11-15T02:47:55.971Z,8.10
2022-11-15T02:52:58.297Z,8.00
2022-11-15T02:58:19.029Z,8.10
2022-11-15T03:03:55.987Z,8.10
2022-11-15T03:09:03.842Z,8.20
2022-11-15T03:14:19.162Z,8.40
2022-11-15T03:19:31.248Z,8.50
2022-11-15T03:24:36.577Z,8.60
2022-11-15T03:29:42.562Z,8.80
2022-11-15T03:34:51.169Z,8.90
2022-11-15T03:39:53.488Z,9.00
2022-11-15T03:45:03.804Z,9.10
2022-11-15T03:50:11.694Z,9.20
2022-11-15T03:55:20.133Z,9.20
2022-11-15T04:00:22.570Z,9.30
2022-11-15T04:05:26.269Z,9.40
2022-11-15T04:10:28.574Z,9.40
2022-11-15T04:15:30.893Z,9.50
2022-11-15T04:20:37.545Z,9.60
2022-11-15T04:25:40.065Z,9.70
2022-11-15T04:30:42.208Z,9.70
2022-11-15T04:35:45.897Z,9.80
2022-11-15T04:40:48.150Z,9.90
2022-11-15T04:45:53.349Z,9.90
2022-11-15T04:50:57.134Z,9.90
2022-11-15T04:55:59.330Z,10.00
2022-11-15T05:01:08.302Z,10.00
2022-11-15T05:06:12.014Z,10.10
2022-11-15T05:11:14.297Z,10.10
2022-11-15T05:16:16.741Z,10.10
2022-11-15T05:21:21.058Z,10.10
2022-11-15T05:26:23.325Z,10.10
2022-11-15T05:31:27.194Z,10.20
2022-11-15T05:36:35.642Z,10.20
2022-11-15T05:41:43.265Z,10.30
2022-11-15T05:46:46.479Z,10.30
2022-11-15T05:51:50.858Z,10.40
2022-11-15T05:56:55.126Z,10.50
2022-11-15T06:01:57.454Z,10.60
2022-11-15T06:07:01.484Z,10.70
2022-11-15T06:12:04.059Z,10.80
2022-11-15T06:17:11.168Z,10.80
2022-11-15T06:22:15.407Z,10.90
2022-11-15T06:27:17.799Z,11.00
2022-11-15T06:32:20.220Z,11.10
2022-11-15T06:37:23.955Z,11.20
2022-11-15T06:42:26.266Z,11.30
2022-11-15T06:47:28.630Z,11.40
2022-11-15T06:52:33.831Z,11.50
2022-11-15T06:57:36.547Z,11.60
2022-11-15T07:02:38.839Z,11.70
2022-11-15T07:07:42.585Z,11.80
2022-11-15T07:12:48.379Z,11.90
2022-11-15T07:17:50.772Z,12.00
2022-11-15T07:23:01.363Z,12.10
2022-11-15T07:28:04.669Z,12.20
2022-11-15T07:33:07.549Z,12.30
2022-11-15T07:38:11.250Z,12.40
2022-11-15T07:43:13.567Z,12.50
2022-11-15T07:48:16.038Z,12.50
2022-11-15T07:53:19.788Z,12.60
2022-11-15T07:58:22.244Z,12.70
2022-11-15T08:03:26.788Z,12.80
2022-11-15T08:08:30.632Z,12.80
2022-11-15T08:13:33.270Z,12.90
2022-11-15T08:18:36.254Z,13.00
2022-11-15T08:23:40.022Z,13.10
2022-11-15T08:28:43.755Z,13.10
2022-11-15T08:33:46.454Z,13.10
2022-11-15T08:38:50.222Z,13.20
2022-11-15T08:43:52.622Z,13.20
2022-11-15T08:48:55.167Z,13.20
2022-11-15T08:53:59.021Z,13.30
2022-11-15T08:59:01.501Z,13.30
2022-11-15T09:04:04.436Z,13.30
2022-11-15T09:09:08.573Z,13.40
2022-11-15T09:14:14.596Z,13.50
2022-11-15T09:19:16.841Z,13.50
2022-11-15T09:24:20.747Z,13.60
2022-11-15T09:29:23.007Z,13.60
2022-11-15T09:34:25.342Z,13.60
2022-11-15T09:39:31.471Z,13.70
2022-11-15T09:44:47.378Z,13.80
2022-11-15T09:49:57.870Z,13.80
2022-11-15T09:55:02.156Z,13.90
2022-11-15T10:05:40.119Z,14.00
2022-11-15T10:10:47.166Z,14.00
2022-11-15T10:15:50.860Z,14.10
2022-11-15T10:20:59.268Z,14.10
2022-11-15T10:26:08.535Z,14.10
2022-11-15T10:31:27.844Z,14.20
2022-11-15T10:36:30.213Z,14.30
2022-11-15T10:41:41.884Z,14.30
2022-11-15T10:46:47.841Z,14.40
2022-11-15T10:51:58.375Z,14.40
2022-11-15T10:57:08.131Z,14.40
2022-11-15T11:02:28.630Z,14.40
2022-11-15T11:07:35.920Z,14.40
2022-11-15T11:12:39.364Z,14.30
2022-11-15T11:17:58.562Z,14.30
2022-11-15T11:23:20.508Z,14.20
2022-11-15T11:28:37.714Z,14.10
2022-11-15T11:33:43.183Z,14.00
2022-11-15T11:38:56.102Z,14.00
2022-11-15T11:44:09.813Z,14.00
2022-11-15T11:49:16.710Z,14.00
2022-11-15T11:54:24.180Z,14.00
2022-11-15T11:59:37.415Z,14.10
2022-11-15T12:04:43.978Z,14.10
2022-11-15T12:09:53.112Z,14.20
2022-11-15T12:15:02.287Z,14.40
2022-11-15T12:20:14.446Z,14.60
2022-11-15T12:25:21.469Z,14.70
2022-11-15T12:30:39.580Z,14.90
2022-11-15T12:35:43.857Z,15.00
2022-11-15T12:41:14.329Z,15.20
2022-11-15T12:46:44.003Z,15.30
2022-11-15T12:52:05.948Z,15.40
2022-11-15T12:57:29.394Z,15.70
2022-11-15T13:02:36.280Z,15.80
2022-11-15T13:07:59.892Z,15.90
2022-11-15T13:13:03.818Z,15.90
2022-11-15T13:18:39.232Z,16.10
2022-11-15T13:23:42.011Z,16.40
2022-11-15T13:28:45.973Z,16.50
2022-11-15T13:33:50.821Z,16.50
2022-11-15T13:39:00.334Z,16.40
2022-11-15T13:44:04.651Z,16.40
2022-11-15T13:49:11.067Z,16.50
2022-11-15T13:54:26.398Z,16.50
2022-11-15T13:59:32.061Z,16.40
2022-11-15T14:04:36.298Z,16.40
2022-11-15T14:09:40.313Z,16.30
2022-11-15T14:14:47.243Z,16.10
2022-11-15T14:19:51.138Z,16.00
2022-11-15T14:25:18.808Z,15.90
2022-11-15T14:30:21.137Z,15.80
2022-11-15T14:35:25.021Z,15.60
2022-11-15T14:40:27.319Z,15.50
2022-11-15T14:45:31.536Z,15.50
2022-11-15T14:50:36.648Z,15.40
2022-11-15T14:55:39.019Z,15.30
2022-11-15T15:00:43.046Z,15.20
2022-11-15T15:05:48.002Z,15.00
2022-11-15T15:10:50.333Z,14.80
2022-11-15T15:15:53.459Z,14.60
2022-11-15T15:20:59.382Z,14.50
2022-11-15T15:26:01.683Z,14.30
2022-11-15T15:31:06.216Z,14.10
2022-11-15T15:36:12.367Z,14.00
2022-11-15T15:41:16.721Z,13.90
2022-11-15T15:46:20.694Z,13.70
2022-11-15T15:51:24.521Z,13.60
2022-11-15T15:56:26.827Z,13.50
2022-11-15T16:01:29.261Z,13.40
2022-11-15T16:06:38.594Z,13.30
2022-11-15T16:11:41.599Z,13.20
2022-11-15T16:16:43.895Z,13.10
2022-11-15T16:21:47.773Z,13.00
2022-11-15T16:26:52.137Z,12.90
2022-11-15T16:31:54.503Z,12.90
2022-11-15T16:36:58.259Z,12.80
2022-11-15T16:42:01.260Z,12.80
2022-11-15T16:47:17.542Z,12.70
2022-11-15T16:52:21.743Z,12.60
2022-11-15T16:57:24.080Z,12.60
2022-11-15T17:02:26.437Z,12.50
2022-11-15T17:07:31.648Z,12.60
2022-11-15T17:12:38.493Z,12.50
2022-11-15T17:17:41.537Z,12.60
2022-11-15T17:22:45.371Z,12.60
2022-11-15T17:27:47.786Z,12.50
2022-11-15T17:32:51.997Z,12.50
2022-11-15T17:37:55.751Z,12.50
2022-11-15T17:42:58.221Z,12.40
2022-11-15T17:48:00.537Z,12.40
2022-11-15T17:53:04.118Z,12.40
2022-11-15T17:58:09.329Z,12.40
2022-11-15T18:03:11.549Z,12.50
2022-11-15T18:08:15.606Z,12.50
2022-11-15T18:13:18.018Z,12.60
2022-11-15T18:18:21.488Z,12.60
2022-11-15T18:23:27.557Z,12.70
2022-11-15T18:28:31.844Z,12.70
2022-11-15T18:33:35.620Z,12.80
2022-11-15T18:38:39.906Z,12.80
2022-11-15T18:43:42.302Z,12.80
2022-11-15T18:48:46.359Z,12.90
2022-11-15T18:53:53.674Z,13.00
2022-11-15T18:58:56.665Z,13.00
2022-11-15T19:03:59.642Z,13.00
2022-11-15T19:09:04.587Z,13.10
2022-11-15T19:14:08.701Z,13.10
2022-11-15T19:19:13.746Z,13.10
2022-11-15T19:24:17.714Z,13.10
2022-11-15T19:29:19.923Z,13.10
2022-11-15T19:34:22.360Z,13.10
2022-11-15T19:39:26.816Z,13.10
2022-11-15T19:44:29.771Z,13.10
2022-11-15T19:49:32.579Z,13.10
2022-11-15T19:54:37.772Z,13.20
2022-11-15T19:59:52.459Z,13.20
2022-11-15T20:04:54.666Z,13.30
2022-11-15T20:09:58.398Z,13.30
2022-11-15T20:15:00.636Z,13.40
2022-11-15T20:20:02.974Z,13.40
2022-11-15T20:25:08.911Z,13.50
2022-11-15T20:30:12.118Z,13.60
2022-11-15T20:35:14.574Z,13.60
2022-11-15T20:40:19.014Z,13.70
2022-11-15T20:45:21.649Z,13.80
2022-11-15T20:50:41.756Z,13.90
2022-11-15T20:55:49.261Z,13.90
2022-11-15T21:00:55.685Z,14.00
2022-11-15T21:06:00.737Z,14.00
2022-11-15T21:11:04.709Z,14.00
2022-11-15T21:16:08.088Z,14.00
2022-11-15T21:21:10.492Z,14.10
2022-11-15T21:26:14.358Z,14.10
2022-11-15T21:31:18.994Z,14.10
2022-11-15T21:36:21.962Z,14.10
2022-11-15T21:41:25.815Z,14.10
2022-11-15T21:46:29.288Z,14.10
2022-11-15T21:51:32.523Z,14.10
2022-11-15T21:56:37.784Z,14.00
2022-11-15T22:01:40.299Z,14.10
2022-11-15T22:06:42.660Z,14.10
2022-11-15T22:11:46.384Z,14.00
2022-11-15T22:16:48.644Z,14.00
2022-11-15T22:21:53.581Z,14.00
2022-11-15T22:26:57.325Z,13.90
2022-11-15T22:31:59.683Z,13.90
2022-11-15T22:42:25.778Z,13.90
2022-11-15T22:47:28.058Z,13.90
2022-11-15T22:52:30.301Z,13.90
2022-11-15T22:57:33.990Z,13.90
2022-11-15T23:02:36.269Z,13.90
2022-11-15T23:07:40.548Z,13.90
2022-11-15T23:12:44.326Z,13.90
2022-11-15T23:17:46.648Z,13.90
2022-11-15T23:22:48.928Z,13.90
2022-11-15T23:27:52.813Z,13.90
2022-11-15T23:32:58.226Z,13.90
2022-11-15T23:38:00.570Z,13.90
2022-11-15T23:43:04.338Z,13.80
2022-11-15T23:48:06.904Z,13.90
2022-11-15T23:53:09.312Z,13.80
2022-11-15T23:58:15.454Z,13.70
